Time;durP1;ratioP1;P1;durP2;ratioP2;P2;SDS_P1;SDS_P2;PMS_P1;PMS_P2;Temp;Humidity;BMP_temperature;BMP_pressure;BME280_temperature;BME280_humidity;BME280_pressure;Samples;Min_cycle;Max_cycle;Signal;HPM_P1;HPM_P2
2023/06/04 00:00:05;;;;;;;1.90;1.80;;;16.30;50.80;;;;;;5055042;28;20528;-76
2023/06/04 00:02:32;;;;;;;2.10;1.90;;;16.20;51.10;;;;;;5054106;28;20474;-76
2023/06/04 00:05:00;;;;;;;4.03;2.77;;;16.20;51.20;;;;;;5053639;28;20482;-76
2023/06/04 00:07:28;;;;;;;2.30;1.80;;;16.20;51.30;;;;;;5054766;28;20948;-76
2023/06/04 00:09:55;;;;;;;2.67;2.00;;;16.20;51.50;;;;;;5053770;28;20463;-76
2023/06/04 00:12:22;;;;;;;2.70;2.40;;;16.20;51.70;;;;;;5054496;28;20475;-76
2023/06/04 00:14:49;;;;;;;2.77;2.13;;;16.10;51.80;;;;;;5054249;28;20999;-76
2023/06/04 00:17:16;;;;;;;2.70;2.50;;;16.10;51.90;;;;;;5054283;28;20972;-75
2023/06/04 00:19:43;;;;;;;3.10;2.43;;;16.10;52.00;;;;;;5054649;28;20984;-76
2023/06/04 00:22:11;;;;;;;4.13;2.47;;;16.00;52.20;;;;;;5055434;28;21030;-76
2023/06/04 00:24:39;;;;;;;3.10;2.83;;;16.00;52.30;;;;;;5053766;28;20480;-76
2023/06/04 00:27:07;;;;;;;6.10;2.77;;;16.00;52.40;;;;;;5054713;28;20809;-76
2023/06/04 00:29:34;;;;;;;3.20;2.87;;;15.90;52.80;;;;;;5053855;28;20493;-76
2023/06/04 00:32:02;;;;;;;3.70;2.67;;;15.90;52.80;;;;;;5053516;28;20833;-76
2023/06/04 00:34:29;;;;;;;3.30;3.00;;;15.80;52.90;;;;;;5054383;28;20481;-76
2023/06/04 00:36:56;;;;;;;3.63;2.10;;;15.80;53.10;;;;;;5053482;28;20499;-76
2023/06/04 00:39:26;;;;;;;2.70;2.47;;;15.80;53.10;;;;;;5043980;28;20479;-76
2023/06/04 00:41:53;;;;;;;2.80;2.60;;;15.70;53.40;;;;;;5052502;28;20463;-76
2023/06/04 00:44:21;;;;;;;2.47;2.27;;;15.60;53.50;;;;;;5053526;28;20545;-75
2023/06/04 00:46:49;;;;;;;3.40;2.70;;;15.60;53.70;;;;;;5053898;28;20499;-76
2023/06/04 00:49:16;;;;;;;3.70;2.53;;;15.50;53.80;;;;;;5054440;28;20472;-76
2023/06/04 00:51:43;;;;;;;2.87;2.40;;;15.50;53.90;;;;;;5056048;28;20471;-76
2023/06/04 00:54:13;;;;;;;1.97;1.80;;;15.50;54.00;;;;;;5057410;28;20467;-76
2023/06/04 00:56:42;;;;;;;3.67;3.10;;;15.50;54.10;;;;;;5058104;28;20467;-75
2023/06/04 00:59:10;;;;;;;3.90;2.60;;;15.40;54.20;;;;;;5059611;28;20467;-76
2023/06/04 01:01:45;;;;;;;3.17;2.67;;;15.40;54.40;;;;;;5057173;28;20494;-76
2023/06/04 01:04:18;;;;;;;2.53;2.30;;;15.40;54.40;;;;;;5057114;28;20538;-77
2023/06/04 01:06:48;;;;;;;2.60;1.93;;;15.30;54.70;;;;;;5059671;28;20471;-76
2023/06/04 01:09:16;;;;;;;2.33;2.13;;;15.20;55.40;;;;;;5059277;28;20459;-76
2023/06/04 01:11:45;;;;;;;3.83;2.13;;;15.20;55.00;;;;;;5060649;28;20471;-76
2023/06/04 01:14:12;;;;;;;2.50;2.17;;;15.10;55.10;;;;;;5063513;28;20463;-76
2023/06/04 01:16:48;;;;;;;3.07;2.07;;;15.10;55.40;;;;;;5065230;28;20477;-76
2023/06/04 01:19:47;;;;;;;4.07;2.13;;;15.10;55.50;;;;;;5066246;28;20466;-76
2023/06/04 01:22:31;;;;;;;3.67;2.73;;;15.00;55.50;;;;;;5067372;28;20471;-76
2023/06/04 01:25:03;;;;;;;2.47;2.27;;;15.00;55.90;;;;;;5065691;28;20471;-76
2023/06/04 01:27:35;;;;;;;2.73;2.50;;;15.00;55.90;;;;;;5068625;28;20505;-75
2023/06/04 01:30:03;;;;;;;2.20;1.80;;;15.00;56.00;;;;;;5064347;28;20471;-77
2023/06/04 01:32:32;;;;;;;3.53;2.53;;;14.90;56.00;;;;;;5065856;28;20470;-77
2023/06/04 01:35:00;;;;;;;3.37;2.07;;;14.90;56.10;;;;;;5063231;28;20533;-76
2023/06/04 01:37:27;;;;;;;3.40;1.63;;;14.90;56.40;;;;;;5058961;28;20871;-77
2023/06/04 01:39:54;;;;;;;3.60;2.37;;;14.90;56.50;;;;;;5056411;28;20471;-77
2023/06/04 01:42:21;;;;;;;2.30;1.77;;;14.90;56.50;;;;;;5056993;28;20528;-77
2023/06/04 01:44:49;;;;;;;3.20;2.00;;;14.90;56.60;;;;;;5058965;28;20482;-77
2023/06/04 01:47:16;;;;;;;3.10;2.50;;;14.90;56.70;;;;;;5057007;28;20470;-77
2023/06/04 01:49:43;;;;;;;2.43;2.03;;;14.80;56.80;;;;;;5059680;28;20542;-77
2023/06/04 01:52:11;;;;;;;2.17;1.90;;;14.80;56.90;;;;;;5060451;28;20471;-75
2023/06/04 01:54:39;;;;;;;5.10;2.27;;;14.80;57.10;;;;;;5061095;28;20682;-77
2023/06/04 01:57:06;;;;;;;2.20;2.00;;;14.80;57.30;;;;;;5063497;28;20887;-76
2023/06/04 01:59:33;;;;;;;2.53;1.83;;;14.80;57.30;;;;;;5064024;28;20471;-77
2023/06/04 02:02:02;;;;;;;3.20;2.63;;;14.80;57.50;;;;;;5064989;28;20467;-77
2023/06/04 02:04:30;;;;;;;1.93;1.83;;;14.70;57.60;;;;;;5066287;28;20471;-76
2023/06/04 02:06:59;;;;;;;3.87;2.60;;;14.70;57.70;;;;;;5067799;28;20554;-76
2023/06/04 02:09:27;;;;;;;3.70;1.90;;;14.70;57.80;;;;;;5061562;28;20517;-76
2023/06/04 02:11:54;;;;;;;3.17;1.87;;;14.70;57.90;;;;;;5057500;28;20475;-76
2023/06/04 02:14:21;;;;;;;2.90;2.08;;;14.60;58.00;;;;;;5056124;28;20478;-77
2023/06/04 02:16:50;;;;;;;3.23;1.90;;;14.50;58.20;;;;;;5055834;28;20228;-76
2023/06/04 02:19:19;;;;;;;2.08;1.95;;;14.50;58.20;;;;;;5056247;28;20471;-77
2023/06/04 02:21:46;;;;;;;2.33;1.83;;;14.50;58.20;;;;;;5055919;28;20282;-76
2023/06/04 02:24:13;;;;;;;2.90;2.10;;;14.60;58.30;;;;;;5054468;28;20948;-75
2023/06/04 02:26:40;;;;;;;3.90;1.87;;;14.50;58.40;;;;;;5055947;28;20471;-76
2023/06/04 02:29:07;;;;;;;3.10;1.87;;;14.60;58.50;;;;;;5055556;28;21003;-76
2023/06/04 02:31:34;;;;;;;3.07;2.10;;;14.60;58.50;;;;;;5056369;28;20479;-75
2023/06/04 02:34:01;;;;;;;2.80;2.53;;;14.50;58.50;;;;;;5055785;28;20550;-76
2023/06/04 02:36:30;;;;;;;1.80;1.70;;;14.60;58.60;;;;;;5055387;28;20474;-75
2023/06/04 02:38:57;;;;;;;1.93;1.83;;;14.50;58.50;;;;;;5055454;28;20810;-75
2023/06/04 02:41:27;;;;;;;2.17;2.00;;;14.50;58.80;;;;;;5055260;28;20471;-75
2023/06/04 02:43:55;;;;;;;1.92;1.67;;;14.50;58.80;;;;;;5056073;28;20470;-76
2023/06/04 02:46:22;;;;;;;3.38;2.00;;;14.50;59.00;;;;;;5055242;28;20278;-76
2023/06/04 02:48:49;;;;;;;4.90;2.23;;;14.40;59.10;;;;;;5056478;28;20285;-75
2023/06/04 02:51:17;;;;;;;3.03;2.22;;;14.40;59.30;;;;;;5044668;28;20467;-75
2023/06/04 02:53:46;;;;;;;5.10;2.50;;;14.40;59.30;;;;;;5054789;28;20232;-75
2023/06/04 02:56:13;;;;;;;2.80;1.90;;;14.40;59.20;;;;;;5055172;28;20232;-75
2023/06/04 02:58:50;;;;;;;2.13;1.57;;;14.30;59.40;;;;;;5056020;28;20521;-75
2023/06/04 03:01:20;;;;;;;3.17;2.33;;;14.30;59.50;;;;;;5056657;28;20501;-75
2023/06/04 03:03:47;;;;;;;4.60;1.95;;;14.30;59.60;;;;;;5055440;28;20232;-75
2023/06/04 03:06:15;;;;;;;5.07;1.58;;;14.30;59.60;;;;;;5054579;28;20290;-75
2023/06/04 03:08:43;;;;;;;1.90;1.70;;;14.30;59.60;;;;;;5055485;28;20287;-76
2023/06/04 03:11:11;;;;;;;3.17;1.88;;;14.30;59.70;;;;;;5055292;28;20541;-75
2023/06/04 03:13:40;;;;;;;1.90;1.70;;;14.30;59.70;;;;;;5054732;28;20228;-76
2023/06/04 03:16:09;;;;;;;2.22;2.03;;;14.20;59.70;;;;;;5044734;28;20483;-75
2023/06/04 03:18:37;;;;;;;2.22;2.03;;;14.20;60.00;;;;;;5054835;28;20264;-76
2023/06/04 03:21:04;;;;;;;2.15;1.95;;;14.20;60.00;;;;;;5055486;28;20213;-75
2023/06/04 03:23:32;;;;;;;2.63;2.00;;;14.20;60.20;;;;;;5054270;28;20239;-76
2023/06/04 03:25:59;;;;;;;2.80;1.92;;;14.20;60.50;;;;;;5055739;28;20228;-76
2023/06/04 03:28:27;;;;;;;3.33;1.80;;;14.10;60.50;;;;;;5060063;28;20563;-76
2023/06/04 03:30:54;;;;;;;2.95;1.90;;;14.10;60.60;;;;;;5058331;28;20233;-76
2023/06/04 03:33:22;;;;;;;3.95;2.00;;;14.10;60.90;;;;;;5056198;28;20217;-76
2023/06/04 03:35:49;;;;;;;4.20;2.05;;;14.10;60.90;;;;;;5062403;28;20230;-76
2023/06/04 03:38:16;;;;;;;4.40;2.10;;;14.10;60.90;;;;;;5063846;28;20231;-75
2023/06/04 03:40:44;;;;;;;2.83;2.40;;;14.00;61.30;;;;;;5060988;28;20220;-76
2023/06/04 03:43:11;;;;;;;2.30;1.65;;;14.00;61.40;;;;;;5063895;28;20239;-75
2023/06/04 03:45:40;;;;;;;2.03;1.65;;;14.00;61.60;;;;;;5066574;28;20232;-75
2023/06/04 03:48:07;;;;;;;2.50;1.60;;;14.00;61.60;;;;;;5067115;28;20224;-75
2023/06/04 03:50:35;;;;;;;2.08;1.92;;;14.10;61.60;;;;;;5068956;28;20229;-75
2023/06/04 03:53:04;;;;;;;2.25;1.77;;;14.10;61.60;;;;;;5067145;28;20300;-75
2023/06/04 03:55:33;;;;;;;2.28;2.08;;;14.10;61.70;;;;;;5063861;28;20229;-75
2023/06/04 03:57:59;;;;;;;2.10;1.90;;;14.10;62.00;;;;;;5062715;28;20311;-76
2023/06/04 04:00:27;;;;;;;3.53;1.90;;;14.10;62.20;;;;;;5064391;28;20288;-75
2023/06/04 04:02:58;;;;;;;2.35;2.15;;;14.10;62.40;;;;;;5064092;28;20254;-75
2023/06/04 04:05:25;;;;;;;3.70;2.17;;;14.20;62.60;;;;;;5066986;28;20263;-75
2023/06/04 04:07:52;;;;;;;4.43;1.75;;;14.20;62.30;;;;;;5070209;28;20231;-75
2023/06/04 04:10:19;;;;;;;3.33;1.50;;;14.20;62.20;;;;;;5067291;28;20355;-76
2023/06/04 04:12:46;;;;;;;2.20;1.77;;;14.20;62.30;;;;;;5066003;28;20464;-75
2023/06/04 04:15:14;;;;;;;3.45;2.50;;;14.20;62.40;;;;;;5067390;28;20532;-76
2023/06/04 04:17:42;;;;;;;3.17;2.15;;;14.30;62.50;;;;;;5066572;28;20220;-75
2023/06/04 04:20:12;;;;;;;3.45;2.35;;;14.30;62.60;;;;;;5066371;28;20280;-75
2023/06/04 04:22:42;;;;;;;2.80;2.53;;;14.30;63.00;;;;;;5071487;28;20217;-76
2023/06/04 04:25:10;;;;;;;2.07;1.87;;;14.30;62.90;;;;;;5065582;28;20282;-75
2023/06/04 04:27:40;;;;;;;2.03;1.80;;;14.40;62.80;;;;;;5071432;28;20459;-76
2023/06/04 04:30:09;;;;;;;3.23;2.40;;;14.40;62.80;;;;;;5071693;28;20209;-77
2023/06/04 04:32:38;;;;;;;2.22;2.03;;;14.40;62.80;;;;;;5071730;28;20455;-76
2023/06/04 04:35:07;;;;;;;2.85;2.40;;;14.50;62.80;;;;;;5071479;28;20229;-77
2023/06/04 04:37:38;;;;;;;2.90;2.60;;;14.40;62.80;;;;;;5065821;28;20324;-76
2023/06/04 04:40:09;;;;;;;2.27;2.00;;;14.50;63.10;;;;;;5065155;28;20459;-75
2023/06/04 04:42:37;;;;;;;5.85;2.67;;;14.50;63.00;;;;;;5063205;28;20893;-76
2023/06/04 04:45:06;;;;;;;2.23;2.00;;;14.60;63.10;;;;;;5061531;28;20679;-75
2023/06/04 04:47:33;;;;;;;2.20;2.00;;;14.60;62.90;;;;;;5063854;28;20472;-75
2023/06/04 04:50:01;;;;;;;2.70;2.30;;;14.60;63.00;;;;;;5066371;28;20559;-75
2023/06/04 04:52:28;;;;;;;4.07;2.13;;;14.70;62.90;;;;;;5063565;28;20467;-76
2023/06/04 04:54:57;;;;;;;2.40;1.73;;;14.80;62.90;;;;;;5060330;28;20479;-75
2023/06/04 04:57:31;;;;;;;4.43;2.10;;;14.90;63.00;;;;;;5056747;28;20478;-76
2023/06/04 04:59:58;;;;;;;2.93;2.63;;;14.90;62.90;;;;;;5058456;28;20472;-75
2023/06/04 05:02:25;;;;;;;2.37;1.93;;;14.90;63.10;;;;;;5058686;28;20467;-75
2023/06/04 05:04:52;;;;;;;3.03;1.80;;;14.90;63.10;;;;;;5057243;28;20485;-76
2023/06/04 05:07:21;;;;;;;2.80;2.10;;;15.00;63.10;;;;;;5056533;28;20538;-76
2023/06/04 05:09:48;;;;;;;3.00;1.83;;;15.10;63.20;;;;;;5058406;28;20466;-76
2023/06/04 05:12:17;;;;;;;2.90;2.23;;;15.10;63.20;;;;;;5055186;28;20530;-75
2023/06/04 05:14:44;;;;;;;2.90;2.13;;;15.20;63.20;;;;;;5053927;28;20513;-75
2023/06/04 05:17:12;;;;;;;2.70;2.27;;;15.30;63.30;;;;;;5054414;28;20505;-76
2023/06/04 05:19:40;;;;;;;7.30;2.77;;;15.30;63.20;;;;;;5052678;28;20474;-76
2023/06/04 05:22:08;;;;;;;3.00;2.60;;;15.40;63.20;;;;;;5053075;28;20468;-75
2023/06/04 05:24:35;;;;;;;2.40;2.20;;;15.50;63.20;;;;;;5053462;28;20545;-77
2023/06/04 05:27:03;;;;;;;3.17;2.27;;;15.50;63.20;;;;;;5053581;28;20467;-76
2023/06/04 05:29:31;;;;;;;5.93;2.03;;;15.60;63.00;;;;;;5052329;28;20486;-75
2023/06/04 05:31:58;;;;;;;2.00;1.77;;;15.60;62.70;;;;;;5053062;28;20790;-76
2023/06/04 05:34:26;;;;;;;3.60;2.33;;;15.70;62.60;;;;;;5051876;28;20467;-75
2023/06/04 05:36:54;;;;;;;2.73;2.53;;;15.80;62.60;;;;;;5052740;28;20471;-75
2023/06/04 05:39:24;;;;;;;2.10;1.90;;;15.90;62.40;;;;;;5051348;28;20471;-75
2023/06/04 05:41:51;;;;;;;2.07;1.97;;;16.00;62.40;;;;;;5053364;28;20486;-76
2023/06/04 05:44:18;;;;;;;2.10;1.90;;;16.00;61.90;;;;;;5052174;28;20459;-76
2023/06/04 05:46:46;;;;;;;2.37;1.70;;;16.10;62.10;;;;;;5052699;28;20468;-76
2023/06/04 05:49:13;;;;;;;1.73;1.63;;;16.20;62.10;;;;;;5053188;28;20471;-77
2023/06/04 05:51:41;;;;;;;4.13;2.07;;;16.30;61.90;;;;;;5052737;28;20977;-77
2023/06/04 05:54:08;;;;;;;2.90;1.90;;;16.40;61.80;;;;;;5052137;28;20553;-77
2023/06/04 05:56:35;;;;;;;2.90;1.70;;;16.50;62.30;;;;;;5052110;28;20479;-76
2023/06/04 05:59:02;;;;;;;2.23;2.03;;;16.60;61.30;;;;;;5052054;28;20546;-76
2023/06/04 06:01:29;;;;;;;3.30;2.30;;;16.70;61.70;;;;;;5051828;28;20482;-76
2023/06/04 06:03:57;;;;;;;2.23;1.70;;;16.80;61.60;;;;;;5052267;28;20553;-76
2023/06/04 06:06:24;;;;;;;3.00;1.97;;;16.90;61.10;;;;;;5051273;28;20490;-76
2023/06/04 06:08:52;;;;;;;2.23;1.70;;;17.10;61.50;;;;;;5052269;28;20467;-76
2023/06/04 06:11:19;;;;;;;2.60;2.23;;;17.20;61.50;;;;;;5051922;28;20468;-76
2023/06/04 06:13:46;;;;;;;2.60;2.20;;;17.30;62.50;;;;;;5052099;28;20813;-76
2023/06/04 06:16:13;;;;;;;4.00;1.67;;;17.50;62.90;;;;;;5051233;28;20537;-75
2023/06/04 06:18:40;;;;;;;4.77;1.93;;;17.60;63.00;;;;;;5052270;28;20864;-76
2023/06/04 06:21:08;;;;;;;2.80;2.30;;;17.70;62.80;;;;;;5051418;28;20528;-77
2023/06/04 06:23:35;;;;;;;2.70;2.50;;;17.90;63.40;;;;;;5052315;28;20501;-76
2023/06/04 06:26:07;;;;;;;2.87;2.10;;;18.00;63.30;;;;;;5051740;28;20479;-76
2023/06/04 06:28:35;;;;;;;2.13;1.70;;;18.10;62.40;;;;;;5053091;28;20979;-76
2023/06/04 06:31:02;;;;;;;3.23;2.23;;;18.20;59.20;;;;;;5054535;28;20536;-77
2023/06/04 06:33:31;;;;;;;1.97;1.77;;;18.40;57.70;;;;;;5056058;28;20463;-76
2023/06/04 06:36:00;;;;;;;2.47;1.90;;;18.50;57.60;;;;;;5055519;28;21020;-76
2023/06/04 06:38:29;;;;;;;2.47;2.27;;;18.60;57.60;;;;;;5055120;28;20467;-76
2023/06/04 06:40:57;;;;;;;2.23;2.00;;;18.70;58.00;;;;;;5055400;28;20471;-75
2023/06/04 06:43:24;;;;;;;2.50;2.27;;;18.80;58.00;;;;;;5054796;28;20529;-77
2023/06/04 06:45:53;;;;;;;3.07;2.20;;;18.90;58.00;;;;;;5055749;28;20471;-77
2023/06/04 06:48:20;;;;;;;2.00;1.70;;;19.00;58.30;;;;;;5054305;28;20905;-76
2023/06/04 06:50:47;;;;;;;2.00;1.53;;;19.20;57.50;;;;;;5055688;28;20467;-76
2023/06/04 06:53:14;;;;;;;3.33;1.60;;;19.40;57.20;;;;;;5053152;28;20475;-77
2023/06/04 06:55:42;;;;;;;1.93;1.50;;;19.60;57.30;;;;;;5055020;28;20471;-76
2023/06/04 06:58:12;;;;;;;2.27;2.07;;;19.80;56.70;;;;;;5055427;28;20499;-77
2023/06/04 07:00:39;;;;;;;3.27;1.63;;;20.00;56.50;;;;;;5055330;28;20525;-76
2023/06/04 07:03:08;;;;;;;2.50;1.47;;;20.30;55.50;;;;;;5055710;28;20463;-76
2023/06/04 07:05:35;;;;;;;2.03;1.60;;;20.50;53.80;;;;;;5055017;28;20548;-76
2023/06/04 07:08:02;;;;;;;3.10;1.30;;;20.70;52.90;;;;;;5055127;28;20529;-76
2023/06/04 07:10:30;;;;;;;2.47;1.50;;;20.90;52.00;;;;;;5054709;28;20773;-77
2023/06/04 07:12:58;;;;;;;2.10;1.87;;;21.10;49.10;;;;;;5054733;28;20467;-77
2023/06/04 07:15:25;;;;;;;1.67;1.57;;;21.20;49.00;;;;;;5054371;28;20471;-76
2023/06/04 07:17:52;;;;;;;1.30;1.10;;;21.40;48.90;;;;;;5055270;28;20763;-77
2023/06/04 07:20:19;;;;;;;2.87;1.47;;;21.60;48.70;;;;;;5053491;28;20964;-76
2023/06/04 07:22:48;;;;;;;2.87;1.43;;;21.70;49.10;;;;;;5055051;28;20482;-76
2023/06/04 07:25:15;;;;;;;1.80;1.20;;;21.90;49.30;;;;;;5053864;28;20544;-77
2023/06/04 07:27:42;;;;;;;1.80;1.70;;;22.00;48.40;;;;;;5054476;28;20498;-77
2023/06/04 07:30:12;;;;;;;3.37;1.30;;;22.20;46.10;;;;;;5052980;28;20475;-77
2023/06/04 07:32:39;;;;;;;1.83;1.30;;;22.40;46.30;;;;;;5054493;28;20466;-75
2023/06/04 07:35:06;;;;;;;2.27;1.07;;;22.50;45.20;;;;;;5054077;28;20533;-74
2023/06/04 07:37:34;;;;;;;1.73;1.10;;;22.70;44.40;;;;;;5052622;28;20468;-75
2023/06/04 07:40:01;;;;;;;2.80;1.13;;;22.80;45.60;;;;;;5054370;28;20477;-74
2023/06/04 07:42:28;;;;;;;1.90;1.40;;;22.90;45.20;;;;;;5053936;28;20478;-75
2023/06/04 07:44:55;;;;;;;1.73;1.20;;;23.10;45.30;;;;;;5054282;28;21844;-77
2023/06/04 07:47:24;;;;;;;2.00;1.67;;;23.20;44.90;;;;;;5053641;28;20495;-77
2023/06/04 07:49:51;;;;;;;2.40;1.30;;;23.30;44.10;;;;;;5054222;28;20472;-76
2023/06/04 07:52:18;;;;;;;2.33;1.43;;;23.40;42.70;;;;;;5053492;28;20524;-76
2023/06/04 07:54:45;;;;;;;1.70;1.43;;;23.50;43.40;;;;;;5053939;28;20459;-76
2023/06/04 07:57:12;;;;;;;2.07;1.20;;;23.60;43.80;;;;;;5053025;28;20505;-76
2023/06/04 07:59:39;;;;;;;1.40;1.10;;;23.60;42.60;;;;;;5053837;28;20496;-77
2023/06/04 08:02:07;;;;;;;1.47;1.10;;;23.70;42.60;;;;;;5054123;28;20600;-75
2023/06/04 08:04:35;;;;;;;3.27;1.70;;;23.80;43.00;;;;;;5053477;28;20530;-76
2023/06/04 08:07:02;;;;;;;1.63;1.40;;;23.80;42.50;;;;;;5054000;28;20723;-76
2023/06/04 08:09:31;;;;;;;1.60;1.30;;;23.90;42.20;;;;;;5052888;28;20877;-76
2023/06/04 08:11:58;;;;;;;1.63;1.53;;;23.90;41.50;;;;;;5053733;28;20474;-76
2023/06/04 08:14:27;;;;;;;2.20;1.80;;;24.00;41.90;;;;;;5052527;28;20821;-75
2023/06/04 08:16:55;;;;;;;1.63;1.53;;;23.90;41.70;;;;;;5052799;28;20475;-75
2023/06/04 08:19:24;;;;;;;1.90;1.40;;;24.10;41.70;;;;;;5053204;28;20463;-76
2023/06/04 08:21:52;;;;;;;3.20;1.67;;;24.20;41.60;;;;;;5053892;28;20466;-76
2023/06/04 08:24:19;;;;;;;1.50;1.40;;;24.30;41.90;;;;;;5053193;28;20502;-77
2023/06/04 08:26:47;;;;;;;2.00;1.60;;;24.40;41.70;;;;;;5053258;28;20467;-77
2023/06/04 08:29:14;;;;;;;1.60;1.50;;;24.50;42.20;;;;;;5053803;28;20786;-77
2023/06/04 08:31:40;;;;;;;4.60;1.43;;;24.50;41.40;;;;;;5053257;28;20463;-77
2023/06/04 08:34:08;;;;;;;1.60;1.17;;;24.50;41.60;;;;;;5053440;28;20494;-76
2023/06/04 08:36:35;;;;;;;2.67;1.27;;;24.50;41.20;;;;;;5052261;28;20488;-75
2023/06/04 08:39:03;;;;;;;2.70;1.40;;;24.50;41.00;;;;;;5053605;28;20471;-74
2023/06/04 08:41:35;;;;;;;2.90;1.50;;;24.40;40.00;;;;;;5051902;28;20465;-76
2023/06/04 08:44:06;;;;;;;2.40;1.80;;;24.30;39.40;;;;;;5042784;28;20993;-77
2023/06/04 08:46:33;;;;;;;1.47;1.37;;;24.30;40.00;;;;;;5052679;28;20957;-77
2023/06/04 08:49:07;;;;;;;4.07;1.70;;;24.20;40.10;;;;;;5044771;28;20529;-77
2023/06/04 08:51:37;;;;;;;1.80;1.20;;;24.10;39.80;;;;;;5051526;28;20500;-77
2023/06/04 08:54:07;;;;;;;1.83;1.20;;;24.10;40.10;;;;;;5052886;28;21007;-77
2023/06/04 08:56:34;;;;;;;3.70;1.80;;;24.00;40.60;;;;;;5052397;28;20835;-76
2023/06/04 08:59:05;;;;;;;4.27;1.70;;;24.00;40.60;;;;;;5052662;28;20471;-76
2023/06/04 09:01:33;;;;;;;1.50;1.40;;;23.90;39.50;;;;;;5053245;28;20531;-75
2023/06/04 09:04:02;;;;;;;1.87;1.17;;;23.90;39.50;;;;;;5053190;28;20965;-76
2023/06/04 09:06:30;;;;;;;1.53;1.33;;;23.90;40.00;;;;;;5051944;28;20482;-76
2023/06/04 09:08:59;;;;;;;1.30;1.10;;;23.80;40.10;;;;;;5053288;28;20542;-76
2023/06/04 09:11:34;;;;;;;1.30;1.00;;;23.80;40.20;;;;;;5052255;28;20467;-77
2023/06/04 09:14:05;;;;;;;1.53;1.40;;;23.80;40.30;;;;;;5053102;28;20463;-77
2023/06/04 09:16:37;;;;;;;1.57;1.10;;;23.70;40.00;;;;;;5052036;28;20483;-75
2023/06/04 09:19:05;;;;;;;12.90;2.47;;;23.70;39.80;;;;;;5052849;28;21028;-75
2023/06/04 09:21:32;;;;;;;3.10;1.30;;;23.50;40.50;;;;;;5052215;28;20471;-76
2023/06/04 09:23:59;;;;;;;2.80;1.40;;;23.50;40.50;;;;;;5052604;28;20840;-76
2023/06/04 09:26:28;;;;;;;2.20;1.30;;;23.50;40.30;;;;;;5052082;28;20490;-75
2023/06/04 09:28:56;;;;;;;1.50;1.20;;;23.40;39.60;;;;;;5052681;28;20976;-75
2023/06/04 09:31:26;;;;;;;1.10;1.00;;;23.30;39.30;;;;;;5052478;28;20979;-75
2023/06/04 09:33:53;;;;;;;1.40;1.30;;;23.20;39.60;;;;;;5052328;28;20470;-75
2023/06/04 09:36:21;;;;;;;1.30;1.20;;;23.20;39.50;;;;;;5052135;28;20471;-75
2023/06/04 09:38:48;;;;;;;1.67;1.57;;;23.10;39.30;;;;;;5051707;28;20471;-75
2023/06/04 09:41:19;;;;;;;1.10;1.00;;;23.20;39.30;;;;;;5050541;28;20481;-76
2023/06/04 09:43:47;;;;;;;1.37;1.23;;;23.20;38.70;;;;;;5051907;28;20478;-75
2023/06/04 09:46:15;;;;;;;1.77;1.27;;;23.20;38.80;;;;;;5052188;28;20538;-76
2023/06/04 09:48:43;;;;;;;3.90;1.80;;;23.10;39.40;;;;;;5052023;28;20537;-76
2023/06/04 09:51:11;;;;;;;1.63;1.40;;;23.10;39.90;;;;;;5052048;28;20468;-74
2023/06/04 09:53:38;;;;;;;1.20;1.10;;;23.10;39.70;;;;;;5051860;28;20513;-75
2023/06/04 09:56:08;;;;;;;2.10;1.77;;;23.10;40.00;;;;;;5052291;28;20536;-75
2023/06/04 09:58:35;;;;;;;2.77;1.60;;;23.00;39.60;;;;;;5052095;28;20487;-76
2023/06/04 10:01:06;;;;;;;1.23;1.13;;;23.10;40.10;;;;;;5052400;28;20852;-74
2023/06/04 10:03:34;;;;;;;2.30;1.20;;;23.10;40.00;;;;;;5054534;28;20466;-77
2023/06/04 10:06:03;;;;;;;1.40;1.17;;;23.00;39.20;;;;;;5055970;28;20838;-76
2023/06/04 10:08:40;;;;;;;1.23;1.13;;;23.00;39.60;;;;;;5056585;28;20548;-75
2023/06/04 10:11:07;;;;;;;1.50;1.33;;;23.00;39.60;;;;;;5056636;28;20537;-77
2023/06/04 10:13:42;;;;;;;2.40;1.70;;;23.00;40.00;;;;;;5055795;28;20921;-76
2023/06/04 10:16:13;;;;;;;2.80;1.63;;;23.00;39.80;;;;;;5055521;28;20470;-76
2023/06/04 10:18:40;;;;;;;1.90;1.70;;;23.10;39.70;;;;;;5055886;28;20785;-77
2023/06/04 10:21:10;;;;;;;1.57;1.47;;;23.10;39.80;;;;;;5055907;28;20571;-77
2023/06/04 10:23:37;;;;;;;1.77;1.30;;;23.10;39.90;;;;;;5055200;28;20471;-76
2023/06/04 10:26:04;;;;;;;1.70;1.40;;;23.10;39.40;;;;;;5056005;28;20475;-75
2023/06/04 10:28:36;;;;;;;3.23;2.17;;;23.10;39.10;;;;;;5055344;28;20479;-75
2023/06/04 10:31:03;;;;;;;2.50;2.30;;;23.10;39.40;;;;;;5056276;28;20513;-75
2023/06/04 10:33:32;;;;;;;1.73;1.40;;;23.20;39.80;;;;;;5055318;28;20475;-75
2023/06/04 10:36:00;;;;;;;1.63;1.53;;;23.20;38.90;;;;;;5055607;28;20970;-75
2023/06/04 10:38:28;;;;;;;1.47;1.37;;;23.30;38.60;;;;;;5055353;28;20500;-76
2023/06/04 10:40:55;;;;;;;2.17;1.13;;;23.30;38.20;;;;;;5055885;28;20976;-76
2023/06/04 10:43:23;;;;;;;2.27;1.60;;;23.30;38.20;;;;;;5054710;28;20825;-75
2023/06/04 10:45:50;;;;;;;1.67;1.43;;;23.30;38.70;;;;;;5054546;28;20467;-76
2023/06/04 10:48:17;;;;;;;2.13;1.40;;;23.30;39.00;;;;;;5055074;28;20498;-75
2023/06/04 10:50:55;;;;;;;1.90;1.80;;;23.40;39.30;;;;;;5059621;28;20547;-75
2023/06/04 10:53:22;;;;;;;1.80;1.40;;;23.40;39.60;;;;;;5072910;28;20474;-77
2023/06/04 10:55:50;;;;;;;1.87;1.60;;;23.40;39.40;;;;;;5074102;28;20462;-76
2023/06/04 10:58:18;;;;;;;1.70;1.50;;;23.50;39.60;;;;;;5075448;28;20971;-75
2023/06/04 11:00:48;;;;;;;1.67;1.57;;;23.50;39.70;;;;;;5075168;28;20458;-75
2023/06/04 11:03:16;;;;;;;4.33;1.63;;;23.50;39.50;;;;;;5075248;28;20553;-76
2023/06/04 11:05:45;;;;;;;2.83;1.40;;;23.40;39.10;;;;;;5074499;28;20466;-75
2023/06/04 11:08:15;;;;;;;1.90;1.10;;;23.40;39.40;;;;;;5075203;28;20520;-75
2023/06/04 11:10:43;;;;;;;2.03;1.23;;;23.40;39.10;;;;;;5074041;28;20850;-75
2023/06/04 11:13:11;;;;;;;1.73;1.27;;;23.40;39.00;;;;;;5074959;28;20984;-75
2023/06/04 11:15:41;;;;;;;1.20;1.10;;;23.40;39.60;;;;;;5071874;28;20475;-75
2023/06/04 11:18:09;;;;;;;4.00;1.30;;;23.50;39.80;;;;;;5074603;28;20466;-75
2023/06/04 11:20:36;;;;;;;1.40;1.30;;;23.50;39.60;;;;;;5070148;28;20565;-75
2023/06/04 11:23:04;;;;;;;1.67;1.57;;;23.50;39.30;;;;;;5074509;28;20553;-76
2023/06/04 11:25:32;;;;;;;1.47;1.37;;;23.50;39.30;;;;;;5073943;28;20462;-75
2023/06/04 11:28:01;;;;;;;5.30;1.47;;;23.50;39.40;;;;;;5074670;28;20533;-75
2023/06/04 11:30:29;;;;;;;2.27;1.23;;;23.50;39.30;;;;;;5073972;28;20482;-75
2023/06/04 11:33:04;;;;;;;1.43;1.20;;;23.50;39.50;;;;;;5074382;28;20463;-75
2023/06/04 11:35:32;;;;;;;2.70;1.40;;;23.50;39.20;;;;;;5072712;28;20482;-74
2023/06/04 11:37:59;;;;;;;2.43;1.37;;;23.40;39.10;;;;;;5074432;28;20550;-74
2023/06/04 11:40:27;;;;;;;1.60;1.43;;;23.40;39.50;;;;;;5072645;28;20971;-76
2023/06/04 11:42:56;;;;;;;4.23;1.30;;;23.40;39.40;;;;;;5054588;28;20463;-74
2023/06/04 11:45:25;;;;;;;5.20;1.10;;;23.40;39.40;;;;;;5054392;28;20474;-74
2023/06/04 11:47:55;;;;;;;2.83;1.20;;;23.50;39.10;;;;;;5053002;28;20537;-76
2023/06/04 11:50:28;;;;;;;1.90;1.20;;;23.40;39.00;;;;;;5053739;28;20564;-76
2023/06/04 11:52:56;;;;;;;3.00;1.30;;;23.40;38.80;;;;;;5053797;28;20550;-76
2023/06/04 11:55:24;;;;;;;1.90;1.30;;;23.50;38.60;;;;;;5066176;28;20481;-74
2023/06/04 11:57:52;;;;;;;2.37;2.20;;;23.50;38.50;;;;;;5073297;28;20989;-78
2023/06/04 12:00:20;;;;;;;1.93;1.53;;;23.60;39.20;;;;;;5072948;28;20532;-77
2023/06/04 12:02:55;;;;;;;2.57;2.13;;;23.60;40.00;;;;;;5074054;28;20475;-77
2023/06/04 12:05:24;;;;;;;2.90;1.70;;;23.70;40.50;;;;;;5073508;28;20490;-77
2023/06/04 12:07:52;;;;;;;1.93;1.70;;;23.70;40.70;;;;;;5073565;28;20490;-77
2023/06/04 12:10:20;;;;;;;6.70;2.10;;;23.80;40.60;;;;;;5073990;28;20474;-76
2023/06/04 12:12:47;;;;;;;1.83;1.67;;;23.90;40.10;;;;;;5073123;28;20968;-76
2023/06/04 12:15:22;;;;;;;1.83;1.73;;;23.90;39.50;;;;;;5073343;28;20483;-76
2023/06/04 12:17:52;;;;;;;1.90;1.63;;;24.00;39.60;;;;;;5072833;28;20565;-75
2023/06/04 12:20:20;;;;;;;1.80;1.43;;;24.10;39.80;;;;;;5073192;28;20470;-75
2023/06/04 12:22:48;;;;;;;1.97;1.60;;;24.10;38.80;;;;;;5072833;28;20494;-75
2023/06/04 12:25:27;;;;;;;2.13;1.20;;;24.10;38.10;;;;;;5073421;28;20504;-75
2023/06/04 12:28:06;;;;;;;1.40;1.30;;;24.10;38.20;;;;;;5071557;28;20561;-76
2023/06/04 12:30:40;;;;;;;1.40;1.30;;;24.10;37.90;;;;;;5065555;28;20466;-77
2023/06/04 12:33:07;;;;;;;1.80;1.50;;;24.10;38.00;;;;;;5073052;28;20495;-76
2023/06/04 12:35:40;;;;;;;1.70;1.57;;;24.10;37.70;;;;;;5074740;28;20786;-77
2023/06/04 12:38:09;;;;;;;2.30;1.30;;;24.00;37.80;;;;;;5064027;28;20515;-76
2023/06/04 12:40:38;;;;;;;1.70;1.60;;;24.00;37.60;;;;;;5063630;28;20819;-75
2023/06/04 12:43:06;;;;;;;2.60;1.37;;;24.00;37.80;;;;;;5074082;28;20482;-76
2023/06/04 12:45:33;;;;;;;1.80;1.30;;;24.00;37.30;;;;;;5073954;28;20855;-76
2023/06/04 12:48:01;;;;;;;1.63;1.53;;;24.00;37.00;;;;;;5073709;28;20502;-76
2023/06/04 12:50:29;;;;;;;2.17;1.87;;;23.90;37.10;;;;;;5072717;28;20958;-75
2023/06/04 12:52:56;;;;;;;1.60;1.50;;;24.00;37.70;;;;;;5063822;28;20467;-76